createdAt,value
2023-06-11T00:03:22.360Z,79.80
2023-06-11T00:07:06.540Z,79.20
2023-06-11T00:10:48.535Z,79.20
2023-06-11T00:14:30.389Z,79.50
2023-06-11T00:18:13.155Z,79.50
2023-06-11T00:21:57.318Z,79.60
2023-06-11T00:25:39.275Z,80.20
2023-06-11T00:29:21.199Z,80.70
2023-06-11T00:33:03.059Z,80.60
2023-06-11T00:36:46.055Z,80.70
2023-06-11T00:40:27.974Z,81.80
2023-06-11T00:44:10.291Z,82.40
2023-06-11T00:47:52.284Z,83.00
2023-06-11T00:51:34.988Z,83.20
2023-06-11T00:55:17.537Z,83.00
2023-06-11T00:59:00.935Z,83.00
2023-06-11T01:02:58.451Z,83.30
2023-06-11T01:06:47.425Z,83.50
2023-06-11T01:10:30.881Z,83.50
2023-06-11T01:14:14.405Z,83.60
2023-06-11T01:18:03.352Z,83.70
2023-06-11T01:22:00.464Z,83.80
2023-06-11T01:25:59.146Z,83.50
2023-06-11T01:29:46.673Z,83.80
2023-06-11T01:33:28.953Z,84.30
2023-06-11T01:37:10.881Z,84.30
2023-06-11T01:40:56.939Z,84.30
2023-06-11T01:44:38.908Z,84.60
2023-06-11T01:48:21.616Z,85.20
2023-06-11T01:52:03.627Z,85.40
2023-06-11T01:55:45.636Z,85.40
2023-06-11T01:59:27.507Z,85.70
2023-06-11T02:03:09.721Z,86.00
2023-06-11T02:06:51.759Z,86.40
2023-06-11T02:10:33.599Z,86.50
2023-06-11T02:14:15.613Z,86.70
2023-06-11T02:17:57.575Z,87.00
2023-06-11T02:21:39.432Z,87.60
2023-06-11T02:25:21.451Z,87.60
2023-06-11T02:29:03.331Z,87.70
2023-06-11T02:32:46.120Z,87.90
2023-06-11T02:36:28.249Z,88.10
2023-06-11T02:40:12.988Z,88.70
2023-06-11T02:43:55.144Z,89.00
2023-06-11T02:47:37.065Z,89.00
2023-06-11T02:51:19.012Z,89.20
2023-06-11T02:55:00.940Z,89.50
2023-06-11T02:58:42.803Z,89.70
2023-06-11T03:02:24.645Z,89.90
2023-06-11T03:06:06.597Z,89.90
2023-06-11T03:09:48.420Z,90.00
2023-06-11T03:13:30.432Z,90.10
2023-06-11T03:17:12.255Z,90.10
2023-06-11T03:20:54.121Z,90.10
2023-06-11T03:24:36.268Z,90.20
2023-06-11T03:28:18.241Z,90.20
2023-06-11T03:32:00.049Z,90.40
2023-06-11T03:35:41.902Z,90.40
2023-06-11T03:39:23.699Z,90.30
2023-06-11T03:43:05.626Z,90.40
2023-06-11T03:46:48.269Z,90.50
2023-06-11T03:50:30.243Z,90.50
2023-06-11T03:54:12.107Z,90.50
2023-06-11T03:57:54.085Z,90.60
2023-06-11T04:01:36.219Z,90.70
2023-06-11T04:05:18.208Z,90.70
2023-06-11T04:09:00.036Z,90.80
2023-06-11T04:12:41.950Z,90.90
2023-06-11T04:16:24.041Z,90.80
2023-06-11T04:20:07.154Z,90.80
2023-06-11T04:23:49.122Z,90.70
2023-06-11T04:27:34.762Z,90.70
2023-06-11T04:31:16.640Z,90.60
2023-06-11T04:34:58.692Z,90.70
2023-06-11T04:38:45.815Z,90.60
2023-06-11T04:42:28.552Z,90.60
2023-06-11T04:46:10.654Z,90.60
2023-06-11T04:49:53.174Z,90.80
2023-06-11T04:53:38.549Z,90.70
2023-06-11T04:57:21.524Z,90.70
2023-06-11T05:01:06.347Z,90.70
2023-06-11T05:04:50.731Z,90.60
2023-06-11T05:08:33.676Z,90.50
2023-06-11T05:12:15.640Z,90.40
2023-06-11T05:15:58.925Z,90.40
2023-06-11T05:19:40.934Z,90.60
2023-06-11T05:23:29.424Z,90.60
2023-06-11T05:27:11.433Z,90.60
2023-06-11T05:30:53.281Z,90.50
2023-06-11T05:34:35.578Z,90.60
2023-06-11T05:38:18.479Z,90.60
2023-06-11T05:42:00.339Z,90.60
2023-06-11T05:45:49.766Z,90.60
2023-06-11T05:49:31.992Z,90.50
2023-06-11T05:53:15.011Z,90.50
2023-06-11T05:56:58.161Z,90.40
2023-06-11T06:00:39.986Z,90.50
2023-06-11T06:04:21.983Z,90.40
2023-06-11T06:08:04.083Z,90.50
2023-06-11T06:11:45.964Z,90.20
2023-06-11T06:15:27.781Z,90.30
2023-06-11T06:19:10.302Z,90.50
2023-06-11T06:22:52.115Z,90.40
2023-06-11T06:26:34.024Z,90.30
2023-06-11T06:30:16.067Z,90.20
2023-06-11T06:33:57.966Z,90.20
2023-06-11T06:37:39.796Z,90.10
2023-06-11T06:41:21.710Z,90.20
2023-06-11T06:45:03.683Z,90.10
2023-06-11T06:48:45.832Z,90.00
2023-06-11T06:52:28.814Z,89.70
2023-06-11T06:56:10.898Z,90.00
2023-06-11T06:59:52.729Z,89.40
2023-06-11T07:03:37.572Z,89.30
2023-06-11T07:07:19.434Z,88.70
2023-06-11T07:11:01.558Z,88.20
2023-06-11T07:14:43.403Z,87.60
2023-06-11T07:18:26.271Z,87.10
2023-06-11T07:22:08.108Z,87.00
2023-06-11T07:25:51.220Z,85.40
2023-06-11T07:29:33.900Z,83.30
2023-06-11T07:33:18.254Z,81.90
2023-06-11T07:37:00.210Z,81.20
2023-06-11T07:40:42.096Z,79.80
2023-06-11T07:44:23.995Z,78.30
2023-06-11T07:48:06.289Z,78.20
2023-06-11T07:51:48.106Z,78.30
2023-06-11T07:55:30.040Z,78.40
2023-06-11T07:59:11.862Z,78.60
2023-06-11T08:02:54.081Z,79.30
2023-06-11T08:06:37.153Z,79.60
2023-06-11T08:10:19.592Z,80.00
2023-06-11T08:14:01.494Z,80.90
2023-06-11T08:17:43.375Z,81.10
2023-06-11T08:21:26.275Z,81.60
2023-06-11T08:25:10.671Z,82.20
2023-06-11T08:28:52.536Z,82.10
2023-06-11T08:32:34.569Z,83.00
2023-06-11T08:36:16.560Z,83.00
2023-06-11T08:39:58.422Z,83.40
2023-06-11T08:43:40.360Z,82.60
2023-06-11T08:47:23.691Z,82.90
2023-06-11T08:51:09.705Z,82.60
2023-06-11T08:54:51.805Z,82.80
2023-06-11T08:58:35.397Z,83.10
2023-06-11T09:02:18.260Z,83.90
2023-06-11T09:06:01.117Z,84.00
2023-06-11T09:09:43.014Z,84.30
2023-06-11T09:13:28.815Z,84.30
2023-06-11T09:17:16.606Z,84.30
2023-06-11T09:21:02.018Z,84.80
2023-06-11T09:24:44.111Z,84.90
2023-06-11T09:28:38.474Z,84.60
2023-06-11T09:32:33.493Z,84.40
2023-06-11T09:36:17.038Z,84.30
2023-06-11T09:39:59.026Z,83.80
2023-06-11T09:43:42.161Z,85.90
2023-06-11T09:47:24.649Z,86.60
2023-06-11T09:51:10.963Z,87.70
2023-06-11T09:54:53.271Z,88.10
2023-06-11T09:58:35.140Z,86.30
2023-06-11T10:02:17.300Z,88.10
2023-06-11T10:06:00.153Z,88.90
2023-06-11T10:09:43.901Z,88.80
2023-06-11T10:13:30.445Z,89.00
2023-06-11T10:17:12.396Z,89.90
2023-06-11T10:21:01.358Z,90.20
2023-06-11T10:24:43.394Z,89.30
2023-06-11T10:28:42.398Z,90.10
2023-06-11T10:32:24.546Z,90.10
2023-06-11T10:36:06.519Z,90.10
2023-06-11T10:39:51.940Z,90.60
2023-06-11T10:43:37.275Z,90.10
2023-06-11T10:47:19.157Z,90.20
2023-06-11T10:51:05.083Z,90.30
2023-06-11T10:54:51.805Z,90.00
2023-06-11T10:58:34.903Z,90.20
2023-06-11T11:02:17.526Z,90.40
2023-06-11T11:05:59.927Z,90.50
2023-06-11T11:09:41.798Z,90.40
2023-06-11T11:13:24.075Z,90.10
2023-06-11T11:17:06.753Z,90.40
2023-06-11T11:20:48.688Z,90.30
2023-06-11T11:24:38.303Z,90.50
2023-06-11T11:28:22.523Z,90.20
2023-06-11T11:32:04.997Z,90.20
2023-06-11T11:35:49.703Z,89.40
2023-06-11T11:39:33.396Z,89.70
2023-06-11T11:43:15.293Z,89.20
2023-06-11T11:47:01.526Z,87.80
2023-06-11T11:50:46.011Z,86.40
2023-06-11T11:54:28.249Z,84.50
2023-06-11T11:58:12.673Z,83.90
2023-06-11T12:01:58.181Z,82.10
2023-06-11T12:05:40.498Z,80.70
2023-06-11T12:09:22.348Z,82.70
2023-06-11T12:13:04.959Z,83.00
2023-06-11T12:16:50.621Z,81.50
2023-06-11T12:20:33.169Z,81.10
2023-06-11T12:24:18.952Z,80.50
2023-06-11T12:28:01.738Z,79.80
2023-06-11T12:31:43.897Z,81.10
2023-06-11T12:35:31.182Z,80.00
2023-06-11T12:39:14.677Z,80.10
2023-06-11T12:43:00.776Z,80.20
2023-06-11T12:46:43.011Z,80.90
2023-06-11T12:50:27.546Z,81.60
2023-06-11T12:54:11.313Z,81.80
2023-06-11T12:57:53.129Z,81.50
2023-06-11T13:01:35.049Z,81.40
2023-06-11T13:05:16.994Z,81.30
2023-06-11T13:08:59.217Z,81.90
2023-06-11T13:12:41.386Z,81.30
2023-06-11T13:16:23.885Z,81.80
2023-06-11T13:20:06.362Z,80.90
2023-06-11T13:23:48.480Z,80.90
2023-06-11T13:27:30.396Z,81.20
2023-06-11T13:31:13.115Z,80.20
2023-06-11T13:34:55.169Z,79.50
2023-06-11T13:38:37.811Z,79.90
2023-06-11T13:42:19.748Z,80.30
2023-06-11T13:46:01.900Z,79.20
2023-06-11T13:49:43.901Z,78.40
2023-06-11T13:53:25.942Z,78.10
2023-06-11T13:57:07.945Z,77.00
2023-06-11T14:00:53.152Z,77.50
2023-06-11T14:04:36.154Z,75.50
2023-06-11T14:08:19.120Z,75.00
2023-06-11T14:12:01.082Z,73.70
2023-06-11T14:15:42.966Z,73.60
2023-06-11T14:19:24.798Z,73.30
2023-06-11T14:23:06.869Z,73.20
2023-06-11T14:26:48.760Z,71.80
2023-06-11T14:30:30.678Z,71.70
2023-06-11T14:34:12.512Z,70.90
2023-06-11T14:37:57.738Z,71.20
2023-06-11T14:41:41.261Z,70.90
2023-06-11T14:45:23.071Z,70.30
2023-06-11T14:49:11.315Z,69.20
2023-06-11T14:52:53.723Z,69.40
2023-06-11T14:56:35.582Z,68.70
2023-06-11T15:00:17.632Z,68.20
2023-06-11T15:03:59.524Z,67.00
2023-06-11T15:07:41.429Z,68.10
2023-06-11T15:11:23.265Z,66.10
2023-06-11T15:15:06.474Z,66.00
2023-06-11T15:18:48.355Z,64.80
2023-06-11T15:22:30.196Z,63.60
2023-06-11T15:26:12.164Z,63.50
2023-06-11T15:29:54.007Z,61.90
2023-06-11T15:33:35.933Z,61.10
2023-06-11T15:37:18.483Z,60.60
2023-06-11T15:41:00.318Z,60.80
2023-06-11T15:44:42.400Z,62.00
2023-06-11T15:48:25.869Z,62.80
2023-06-11T15:52:08.804Z,63.80
2023-06-11T15:55:50.789Z,64.60
2023-06-11T15:59:32.914Z,64.40
2023-06-11T16:03:15.960Z,64.60
2023-06-11T16:07:00.006Z,65.80
2023-06-11T16:10:41.900Z,65.50
2023-06-11T16:14:23.909Z,65.40
2023-06-11T16:18:05.848Z,65.40
2023-06-11T16:21:48.027Z,64.80
2023-06-11T16:25:30.055Z,64.30
2023-06-11T16:29:11.886Z,66.10
2023-06-11T16:32:53.855Z,66.20
2023-06-11T16:36:36.052Z,66.20
2023-06-11T16:40:18.012Z,66.00
2023-06-11T16:43:59.812Z,66.10
2023-06-11T16:47:41.732Z,66.10
2023-06-11T16:51:23.573Z,65.20
2023-06-11T16:55:06.352Z,65.00
2023-06-11T16:58:48.252Z,66.00
2023-06-11T17:02:33.077Z,66.30
2023-06-11T17:06:15.151Z,66.00
2023-06-11T17:09:56.972Z,66.40
2023-06-11T17:13:38.891Z,66.80
2023-06-11T17:17:20.746Z,66.60
2023-06-11T17:21:02.819Z,66.70
2023-06-11T17:24:44.705Z,66.40
2023-06-11T17:28:27.247Z,67.20
2023-06-11T17:32:09.493Z,66.20
2023-06-11T17:35:53.201Z,65.90
2023-06-11T17:39:35.136Z,66.10
2023-06-11T17:43:17.136Z,65.70
2023-06-11T17:46:59.058Z,65.10
2023-06-11T17:50:40.880Z,65.20
2023-06-11T17:54:22.742Z,66.10
2023-06-11T17:58:04.713Z,66.10
2023-06-11T18:01:46.759Z,66.40
2023-06-11T18:05:32.256Z,65.90
2023-06-11T18:09:14.755Z,67.00
2023-06-11T18:12:56.824Z,66.00
2023-06-11T18:16:38.918Z,65.70
2023-06-11T18:20:20.862Z,66.00
2023-06-11T18:24:02.790Z,66.40
2023-06-11T18:27:44.862Z,66.80
2023-06-11T18:31:26.824Z,67.20
2023-06-11T18:35:09.301Z,67.20
2023-06-11T18:38:51.234Z,67.00
2023-06-11T18:42:33.127Z,67.40
2023-06-11T18:46:15.211Z,67.30
2023-06-11T18:49:57.458Z,67.40
2023-06-11T18:53:39.334Z,67.10
2023-06-11T18:57:21.276Z,66.70
2023-06-11T19:01:03.464Z,66.90
2023-06-11T19:04:45.573Z,66.90
2023-06-11T19:08:27.570Z,66.30
2023-06-11T19:12:11.257Z,66.60
2023-06-11T19:15:55.272Z,65.80
2023-06-11T19:19:38.451Z,66.30
2023-06-11T19:23:21.175Z,66.40
2023-06-11T19:27:03.666Z,66.90
2023-06-11T19:30:46.268Z,66.80
2023-06-11T19:34:28.372Z,67.20
2023-06-11T19:38:10.578Z,66.90
2023-06-11T19:41:52.444Z,67.30
2023-06-11T19:45:34.275Z,67.20
2023-06-11T19:49:16.206Z,67.30
2023-06-11T19:52:58.191Z,67.40
2023-06-11T19:56:40.189Z,67.80
2023-06-11T20:00:22.284Z,68.30
2023-06-11T20:04:04.336Z,69.20
2023-06-11T20:07:46.947Z,69.50
2023-06-11T20:11:29.467Z,70.00
2023-06-11T20:15:11.988Z,70.60
2023-06-11T20:18:54.935Z,70.90
2023-06-11T20:22:37.234Z,71.20
2023-06-11T20:26:19.516Z,71.60
2023-06-11T20:30:01.780Z,72.00
2023-06-11T20:33:43.625Z,72.50
2023-06-11T20:37:25.763Z,72.80
2023-06-11T20:41:07.642Z,72.90
2023-06-11T20:44:49.592Z,73.10
2023-06-11T20:48:31.531Z,73.50
2023-06-11T20:52:13.427Z,73.70
2023-06-11T20:55:55.685Z,74.40
2023-06-11T20:59:37.507Z,75.10
2023-06-11T21:03:19.577Z,76.10
2023-06-11T21:07:01.670Z,76.30
2023-06-11T21:10:43.521Z,76.20
2023-06-11T21:14:28.603Z,76.40
2023-06-11T21:18:10.635Z,76.60
2023-06-11T21:21:52.524Z,77.00
2023-06-11T21:25:34.673Z,77.50
2023-06-11T21:29:16.552Z,77.50
2023-06-11T21:32:58.510Z,78.50
2023-06-11T21:36:40.343Z,78.70
2023-06-11T21:40:22.446Z,79.10
2023-06-11T21:44:04.501Z,79.40
2023-06-11T21:47:46.450Z,79.70
2023-06-11T21:51:30.358Z,79.70
2023-06-11T21:55:12.304Z,80.00
2023-06-11T21:58:54.106Z,80.40
2023-06-11T22:02:36.013Z,80.30
2023-06-11T22:06:17.924Z,80.30
2023-06-11T22:10:00.193Z,80.20
2023-06-11T22:13:42.001Z,80.30
2023-06-11T22:17:28.016Z,80.50
2023-06-11T22:21:10.128Z,80.60
2023-06-11T22:24:53.665Z,80.50
2023-06-11T22:28:36.841Z,81.20
2023-06-11T22:32:18.770Z,81.70
2023-06-11T22:36:00.609Z,82.30
2023-06-11T22:39:42.449Z,81.90
2023-06-11T22:43:24.287Z,82.50
2023-06-11T22:47:06.694Z,83.00
2023-06-11T22:50:48.683Z,83.70
2023-06-11T22:54:30.663Z,84.00
2023-06-11T22:58:12.643Z,84.10
2023-06-11T23:01:54.575Z,84.10
2023-06-11T23:05:37.616Z,84.40
2023-06-11T23:09:20.900Z,84.80
2023-06-11T23:13:02.714Z,84.60
2023-06-11T23:16:48.966Z,84.70
2023-06-11T23:20:31.676Z,84.50
2023-06-11T23:24:13.929Z,85.10
2023-06-11T23:27:56.055Z,85.60
2023-06-11T23:31:40.172Z,85.40
2023-06-11T23:35:22.742Z,85.20
2023-06-11T23:39:04.694Z,85.20
2023-06-11T23:42:46.854Z,85.10
2023-06-11T23:46:28.843Z,85.90
2023-06-11T23:50:11.354Z,86.20
2023-06-11T23:53:53.898Z,86.40
2023-06-11T23:57:37.730Z,86.70
